createdAt,value
2023-01-10T00:02:58.004Z,93265.16
2023-01-10T00:08:05.252Z,93257.03
2023-01-10T00:13:24.589Z,93253.81
2023-01-10T00:18:28.225Z,93243.69
2023-01-10T00:23:31.845Z,93256.63
2023-01-10T00:28:35.137Z,93258.66
2023-01-10T00:33:39.447Z,93247.78
2023-01-10T00:38:51.037Z,93255.03
2023-01-10T00:43:58.647Z,93262.81
2023-01-10T00:49:02.299Z,93251.03
2023-01-10T00:54:06.023Z,93251.94
2023-01-10T00:59:09.758Z,93254.75
2023-01-10T01:04:13.403Z,93261.84
2023-01-10T01:09:16.588Z,93270.44
2023-01-10T01:14:20.093Z,93266.19
2023-01-10T01:19:23.154Z,93264.69
2023-01-10T01:24:27.047Z,93273.91
2023-01-10T01:29:42.355Z,93271.88
2023-01-10T01:34:46.504Z,93267.66
2023-01-10T01:39:49.643Z,93249.88
2023-01-10T01:45:14.251Z,93230.66
2023-01-10T01:50:23.090Z,93226.81
2023-01-10T01:55:28.103Z,93225.06
2023-01-10T02:00:35.665Z,93216.41
2023-01-10T02:05:42.906Z,93206.47
2023-01-10T02:10:53.917Z,93195.31
2023-01-10T02:15:57.084Z,93186.25
2023-01-10T02:21:36.676Z,93175.38
2023-01-10T02:26:56.435Z,93170.84
2023-01-10T02:32:40.694Z,93168.47
2023-01-10T02:38:13.781Z,93158.03
2023-01-10T02:43:21.955Z,93140.34
2023-01-10T02:48:25.161Z,93125.78
2023-01-10T02:53:49.984Z,93110.59
2023-01-10T02:59:14.956Z,93120.91
2023-01-10T03:04:46.175Z,93118.81
2023-01-10T03:10:14.358Z,93124.09
2023-01-10T03:15:21.288Z,93123.91
2023-01-10T03:20:27.459Z,93119.84
2023-01-10T03:25:35.964Z,93118.50
2023-01-10T03:30:47.456Z,93119.75
2023-01-10T03:36:11.597Z,93113.84
2023-01-10T03:41:23.995Z,93095.22
2023-01-10T03:46:36.442Z,93101.88
2023-01-10T03:51:40.180Z,93095.25
2023-01-10T03:56:50.112Z,93105.13
2023-01-10T04:01:54.198Z,93093.84
2023-01-10T04:06:57.749Z,93083.81
2023-01-10T04:12:01.216Z,93067.94
2023-01-10T04:17:04.374Z,93067.13
2023-01-10T04:22:07.469Z,93073.22
2023-01-10T04:27:10.807Z,93068.91
2023-01-10T04:32:14.943Z,93061.81
2023-01-10T04:37:18.191Z,93051.09
2023-01-10T04:42:21.667Z,93049.34
2023-01-10T04:47:24.706Z,93068.25
2023-01-10T04:52:28.489Z,93062.72
2023-01-10T04:57:31.521Z,93075.91
2023-01-10T05:02:34.770Z,93073.31
2023-01-10T05:07:38.443Z,93066.00
2023-01-10T05:12:41.460Z,93060.22
2023-01-10T05:17:44.394Z,93069.13
2023-01-10T05:22:47.679Z,93066.75
2023-01-10T05:27:51.977Z,93072.94
2023-01-10T05:32:55.258Z,93074.75
2023-01-10T05:37:58.292Z,93063.72
2023-01-10T05:43:02.030Z,93077.94
2023-01-10T05:48:05.101Z,93084.56
2023-01-10T05:53:08.070Z,93100.53
2023-01-10T05:58:11.902Z,93151.22
2023-01-10T06:03:15.556Z,93132.97
2023-01-10T06:08:18.703Z,93124.50
2023-01-10T06:13:23.507Z,93119.69
2023-01-10T06:18:27.311Z,93094.91
2023-01-10T06:23:30.963Z,93079.88
2023-01-10T06:28:34.106Z,93097.72
2023-01-10T06:33:39.219Z,93132.06
2023-01-10T06:38:43.155Z,93111.06
2023-01-10T06:43:47.607Z,93120.56
2023-01-10T06:48:51.218Z,93137.09
2023-01-10T06:53:54.272Z,93144.13
2023-01-10T06:58:57.404Z,93141.91
2023-01-10T07:04:01.227Z,93151.25
2023-01-10T07:09:06.540Z,93153.25
2023-01-10T07:14:10.204Z,93156.63
2023-01-10T07:19:17.828Z,93126.63
2023-01-10T07:24:21.122Z,93105.56
2023-01-10T07:29:25.143Z,93106.28
2023-01-10T07:34:28.151Z,93087.63
2023-01-10T07:39:31.407Z,93037.28
2023-01-10T07:44:35.472Z,93020.16
2023-01-10T07:49:39.306Z,93078.75
2023-01-10T07:54:42.403Z,93144.81
2023-01-10T07:59:46.530Z,93167.88
2023-01-10T08:04:50.226Z,93177.28
2023-01-10T08:09:53.446Z,93203.97
2023-01-10T08:14:57.128Z,93210.00
2023-01-10T08:20:00.398Z,93175.72
2023-01-10T08:25:04.350Z,93177.44
2023-01-10T08:30:09.362Z,93199.91
2023-01-10T08:35:13.535Z,93193.34
2023-01-10T08:40:17.620Z,93166.59
2023-01-10T08:45:20.691Z,93165.47
2023-01-10T08:50:27.297Z,93205.84
2023-01-10T08:55:32.823Z,93236.69
2023-01-10T09:00:36.688Z,93256.97
2023-01-10T09:05:40.108Z,93242.34
2023-01-10T09:10:43.222Z,93238.72
2023-01-10T09:15:47.169Z,93261.94
2023-01-10T09:20:51.834Z,93265.16
2023-01-10T09:25:58.243Z,93241.47
2023-01-10T09:31:04.581Z,93240.09
2023-01-10T09:36:10.273Z,93248.63
2023-01-10T09:41:42.986Z,93253.78
2023-01-10T09:47:23.200Z,93214.94
2023-01-10T09:52:33.995Z,93223.72
2023-01-10T09:57:37.258Z,93188.06
2023-01-10T10:02:45.814Z,93165.59
2023-01-10T10:07:54.985Z,93135.56
2023-01-10T10:13:26.979Z,93129.97
2023-01-10T10:19:19.880Z,93073.09
2023-01-10T10:24:40.993Z,93071.88
2023-01-10T10:30:02.789Z,93067.25
2023-01-10T10:35:17.342Z,93051.78
2023-01-10T10:40:26.175Z,93024.88
2023-01-10T10:45:40.929Z,93078.75
2023-01-10T10:51:02.556Z,93040.84
2023-01-10T10:56:13.782Z,93028.53
2023-01-10T11:01:19.146Z,93016.00
2023-01-10T11:06:25.927Z,92959.41
2023-01-10T11:11:44.080Z,92947.59
2023-01-10T11:16:47.893Z,92946.16
2023-01-10T11:22:04.327Z,93033.00
2023-01-10T11:27:19.610Z,93066.91
2023-01-10T11:32:50.272Z,93026.78
2023-01-10T11:38:22.268Z,93006.63
2023-01-10T11:43:31.861Z,93028.72
2023-01-10T11:49:06.774Z,93022.97
2023-01-10T11:54:26.982Z,93074.81
2023-01-10T11:59:30.816Z,93024.00
2023-01-10T12:04:42.824Z,92993.22
2023-01-10T12:09:59.082Z,92957.38
2023-01-10T12:15:27.332Z,92923.56
2023-01-10T12:20:33.230Z,92910.06
2023-01-10T12:25:39.147Z,92886.78
2023-01-10T12:30:44.802Z,92939.81
2023-01-10T12:36:00.017Z,92972.97
2023-01-10T12:41:06.209Z,93029.72
2023-01-10T12:46:31.702Z,93055.31
2023-01-10T12:51:45.009Z,93082.56
2023-01-10T12:56:49.591Z,93116.13
2023-01-10T13:02:02.489Z,93090.25
2023-01-10T13:07:06.373Z,93045.78
2023-01-10T13:12:12.274Z,92978.81
2023-01-10T13:17:33.765Z,93050.53
2023-01-10T13:22:38.161Z,92998.44
2023-01-10T13:27:41.977Z,92971.13
2023-01-10T13:33:00.464Z,92987.88
2023-01-10T13:38:03.843Z,92953.53
2023-01-10T13:43:45.712Z,92954.78
2023-01-10T13:49:00.338Z,92997.34
2023-01-10T13:54:28.021Z,93024.22
2023-01-10T13:59:49.462Z,93047.72
2023-01-10T14:04:56.249Z,93118.63
2023-01-10T14:10:18.396Z,93107.50
2023-01-10T14:15:38.394Z,93051.78
2023-01-10T14:20:42.015Z,93011.91
2023-01-10T14:25:46.759Z,92955.38
2023-01-10T14:31:04.372Z,92939.03
2023-01-10T14:36:15.514Z,92953.19
2023-01-10T14:41:30.123Z,92974.56
2023-01-10T14:46:45.391Z,93017.09
2023-01-10T14:51:50.922Z,93035.41
2023-01-10T14:56:54.838Z,93011.63
2023-01-10T15:02:01.010Z,93011.63
2023-01-10T15:07:17.001Z,93022.94
2023-01-10T15:12:21.899Z,93085.22
2023-01-10T15:17:25.805Z,92992.94
2023-01-10T15:22:31.694Z,92963.69
2023-01-10T15:27:37.138Z,93099.75
2023-01-10T15:32:40.891Z,93078.28
2023-01-10T15:37:52.836Z,93101.75
2023-01-10T15:43:25.999Z,93090.81
2023-01-10T15:48:29.536Z,93158.63
2023-01-10T15:53:58.220Z,93187.88
2023-01-10T15:59:03.514Z,93242.63
2023-01-10T16:04:15.326Z,93266.09
2023-01-10T16:09:22.859Z,93292.53
2023-01-10T16:14:26.631Z,93268.47
2023-01-10T16:19:30.215Z,93258.25
2023-01-10T16:24:36.551Z,93281.47
2023-01-10T16:29:40.849Z,93265.28
2023-01-10T16:34:44.419Z,93297.41
2023-01-10T16:39:47.916Z,93385.84
2023-01-10T16:51:58.179Z,93339.00
2023-01-10T16:57:01.187Z,93278.94
2023-01-10T17:02:16.574Z,93237.16
2023-01-10T17:07:23.053Z,93252.19
2023-01-10T17:12:35.123Z,93270.44
2023-01-10T17:17:38.260Z,93305.59
2023-01-10T17:22:42.907Z,93302.28
2023-01-10T17:27:46.135Z,93358.91
2023-01-10T17:32:49.721Z,93418.81
2023-01-10T17:37:52.775Z,93352.94
2023-01-10T17:42:56.626Z,93382.94
2023-01-10T17:47:59.674Z,93399.25
2023-01-10T17:53:03.268Z,93376.66
2023-01-10T17:58:06.601Z,93355.72
2023-01-10T18:03:10.876Z,93297.88
2023-01-10T18:08:14.410Z,93275.84
2023-01-10T18:13:23.357Z,93316.06
2023-01-10T18:18:28.362Z,93343.00
2023-01-10T18:23:33.050Z,93343.19
2023-01-10T18:28:42.594Z,93397.38
2023-01-10T18:33:48.013Z,93383.91
2023-01-10T18:38:52.208Z,93376.84
2023-01-10T18:43:55.707Z,93366.19
2023-01-10T18:48:58.853Z,93404.84
2023-01-10T18:54:03.088Z,93402.09
2023-01-10T18:59:06.665Z,93385.13
2023-01-10T19:04:11.605Z,93405.16
2023-01-10T19:09:15.237Z,93438.50
2023-01-10T19:14:20.091Z,93446.69
2023-01-10T19:19:24.113Z,93442.72
2023-01-10T19:24:30.226Z,93461.53
2023-01-10T19:29:35.440Z,93450.13
2023-01-10T19:34:38.636Z,93453.81
2023-01-10T19:39:42.474Z,93437.03
2023-01-10T19:44:46.776Z,93464.63
2023-01-10T19:49:51.418Z,93461.94
2023-01-10T19:54:55.464Z,93518.31
2023-01-10T19:59:58.833Z,93517.00
2023-01-10T20:05:03.103Z,93474.75
2023-01-10T20:10:06.559Z,93481.97
2023-01-10T20:15:10.558Z,93502.34
2023-01-10T20:20:14.720Z,93517.44
2023-01-10T20:25:17.969Z,93486.38
2023-01-10T20:30:21.879Z,93497.81
2023-01-10T20:35:26.229Z,93494.13
2023-01-10T20:40:30.219Z,93509.22
2023-01-10T20:45:34.866Z,93496.91
2023-01-10T20:50:42.715Z,93471.38
2023-01-10T20:55:56.298Z,93486.28
2023-01-10T21:01:04.450Z,93485.06
2023-01-10T21:06:08.306Z,93489.38
2023-01-10T21:11:14.147Z,93503.03
2023-01-10T21:16:20.389Z,93515.97
2023-01-10T21:21:23.546Z,93517.88
2023-01-10T21:26:26.582Z,93520.16
2023-01-10T21:31:29.905Z,93523.16
2023-01-10T21:36:33.363Z,93559.94
2023-01-10T21:41:55.906Z,93547.56
2023-01-10T21:46:59.749Z,93570.06
2023-01-10T21:52:03.481Z,93559.03
2023-01-10T21:57:06.982Z,93579.09
2023-01-10T22:02:15.438Z,93571.66
2023-01-10T22:07:21.712Z,93566.09
2023-01-10T22:12:26.226Z,93572.16
2023-01-10T22:17:29.267Z,93574.72
2023-01-10T22:22:33.524Z,93533.19
2023-01-10T22:27:37.141Z,93589.03
2023-01-10T22:32:40.456Z,93562.97
2023-01-10T22:37:43.910Z,93547.72
2023-01-10T22:42:52.450Z,93548.13
2023-01-10T22:47:56.367Z,93553.50
2023-01-10T22:52:59.899Z,93518.97
2023-01-10T22:58:03.003Z,93530.44
2023-01-10T23:03:06.985Z,93520.69
2023-01-10T23:08:10.525Z,93519.16
2023-01-10T23:13:15.788Z,93524.56
2023-01-10T23:18:19.045Z,93512.69
2023-01-10T23:23:23.149Z,93524.69
2023-01-10T23:28:26.151Z,93472.75
2023-01-10T23:33:30.931Z,93529.41
2023-01-10T23:38:34.809Z,93526.34
2023-01-10T23:43:38.359Z,93524.38
2023-01-10T23:48:43.339Z,93518.72
2023-01-10T23:53:46.821Z,93516.69
2023-01-10T23:58:52.949Z,93490.66
